ADDS METAR Data INFO
IDs: Format: Raw Decoded Include TAF

Data at: 0701 UTC 19 Oct 2017

KPBX 190655Z AUTO 17003KT 10SM CLR 11/07 A3025 RMK AO2 T01070069
KPBX 190635Z AUTO 00000KT 10SM CLR 11/07 A3025 RMK AO2 T01060070
KPBX 190615Z AUTO 17003KT 10SM CLR 11/07 A3025 RMK AO2 T01100070
KPBX 190555Z AUTO 16004KT 10SM CLR 11/07 A3025 RMK AO2 T01120071 10176 20112
KPBX 190535Z AUTO 16004KT 10SM CLR 11/07 A3025 RMK AO2 T01130072
KPBX 190510Z AUTO 16003KT 10SM CLR 12/07 A3025 RMK AO2 T01220070
KPBX 190455Z AUTO 16003KT 10SM CLR 12/07 A3025 RMK AO2 T01220070 402040050
KPBX 190435Z AUTO 16004KT 10SM CLR 13/07 A3025 RMK AO2 T01260071
KPBX 190415Z AUTO 16003KT 10SM CLR 13/07 A3026 RMK AO2 T01300073
KPBX 190355Z AUTO 15003KT 10SM CLR 13/08 A3026 RMK AO2 T01310075
KPBX 190335Z AUTO 16003KT 10SM CLR 13/08 A3026 RMK AO2 T01320075
KPBX 190315Z AUTO 14004KT 10SM CLR 13/08 A3026 RMK AO2 T01320078
KPBX 190255Z AUTO 16003KT 10SM CLR 14/08 A3026 RMK AO2 T01380076
KPBX 190235Z AUTO 00000KT 10SM CLR 14/08 A3026 RMK AO2 T01420079
KPBX 190215Z AUTO 00000KT 10SM CLR 14/08 A3026 RMK AO2 T01410081
KPBX 190155Z AUTO 17003KT 10SM CLR 14/08 A3026 RMK AO2 T01440076
KPBX 190135Z AUTO 17003KT 10SM CLR 15/07 A3026 RMK AO2 T01480072
KPBX 190115Z AUTO 17003KT 10SM CLR 15/07 A3026 RMK AO2 T01520073
KPBX 190055Z AUTO 00000KT 10SM CLR 15/07 A3026 RMK AO2 T01530070
KPBX 190035Z AUTO 00000KT 10SM CLR 16/06 A3026 RMK AO2 T01620062
KPBX 190015Z AUTO 00000KT 10SM CLR 18/06 A3026 RMK AO2 T01760058
KPBX 182355Z AUTO 00000KT 10SM CLR 18/06 A3026 RMK AO2 T01750061 10204 20175
KPBX 182335Z AUTO 00000KT 10SM CLR 18/06 A3026 RMK AO2 T01770061
KPBX 182315Z AUTO 00000KT 10SM CLR 18/06 A3026 RMK AO2 T01800060
KPBX 182255Z AUTO 00000KT 10SM CLR 18/07 A3026 RMK AO2 T01810065
KPBX 182235Z AUTO 00000KT 10SM CLR 19/06 A3026 RMK AO2 T01870063
KPBX 182215Z AUTO 00000KT 10SM CLR 19/07 A3026 RMK AO2 T01860066
KPBX 182155Z AUTO 00000KT 10SM CLR 20/07 A3026 RMK AO2 T01950066
KPBX 182135Z AUTO 00000KT 10SM CLR 20/07 A3026 RMK AO2 T02000068
KPBX 182115Z AUTO 00000KT 10SM CLR 20/06 A3026 RMK AO2 T02000064
KPBX 182055Z AUTO 00000KT 10SM CLR 20/06 A3026 RMK AO2 T01960061
KPBX 182035Z AUTO 00000KT 10SM CLR 19/06 A3026 RMK AO2 T01940060
KPBX 182015Z AUTO 00000KT 10SM CLR 20/06 A3027 RMK AO2 T02020064
KPBX 181955Z AUTO 00000KT 10SM CLR 19/06 A3027 RMK AO2 T01940060
KPBX 181935Z AUTO 14003KT 10SM CLR 20/06 A3028 RMK AO2 T01990060
KPBX 181915Z AUTO 12003KT 10SM CLR 20/06 A3028 RMK AO2 T02020060
KPBX 181855Z AUTO 30003KT 10SM CLR 20/05 A3029 RMK AO2 T01960050
KPBX 181835Z AUTO 00000KT 10SM CLR 19/06 A3030 RMK AO2 T01930056
KPBX 181815Z AUTO 00000KT 10SM CLR 19/05 A3031 RMK AO2 T01890048
KPBX 181755Z AUTO 26005KT 10SM CLR 19/06 A3031 RMK AO2 T01870056 10187 20050
KPBX 181735Z AUTO 27005KT 10SM CLR 18/05 A3033 RMK AO2 T01810048
KPBX 181715Z AUTO 00000KT 10SM CLR 17/06 A3034 RMK AO2 T01730059
KPBX 181655Z AUTO 18004KT 10SM CLR 17/06 A3035 RMK AO2 T01660056
KPBX 181635Z AUTO 18003KT 10SM CLR 17/06 A3035 RMK AO2 T01650062
KPBX 181615Z AUTO 25003KT 10SM CLR 16/07 A3036 RMK AO2 T01600065
KPBX 181555Z AUTO 00000KT 10SM CLR 15/07 A3036 RMK AO2 T01490067
KPBX 181535Z AUTO 00000KT 10SM CLR 14/07 A3037 RMK AO2 T01370065
KPBX 181515Z AUTO 18003KT 10SM CLR 12/07 A3037 RMK AO2 T01210065
KPBX 181455Z AUTO 00000KT 10SM CLR 11/06 A3036 RMK AO2 T01110060
KPBX 181435Z AUTO 16005KT 10SM CLR 10/06 A3036 RMK AO2 T00980056
KPBX 181415Z AUTO 17004KT 10SM CLR 09/07 A3036 RMK AO2 T00920065
KPBX 181355Z AUTO 17005KT 10SM CLR 09/07 A3036 RMK AO2 T00850066
KPBX 181335Z AUTO 16004KT 10SM CLR 08/06 A3035 RMK AO2 T00760060
KPBX 181315Z AUTO 17004KT 10SM CLR 07/06 A3035 RMK AO2 T00650060
KPBX 181255Z AUTO 16005KT 10SM CLR 06/06 A3035 RMK AO2 T00600060
KPBX 181235Z AUTO 17005KT 10SM CLR 06/06 A3034 RMK AO2 T00560056
KPBX 181215Z AUTO 16005KT 10SM CLR 05/05 A3033 RMK AO2 T00520052
KPBX 181155Z AUTO 17004KT 10SM CLR 05/05 A3033 RMK AO2 T00500050 10080 20050
KPBX 181135Z AUTO 16004KT 10SM CLR 05/05 A3032 RMK AO2 T00510051
KPBX 181115Z AUTO 17006KT 10SM CLR 05/05 A3032 RMK AO2 T00500050
KPBX 181055Z AUTO 18004KT 10SM CLR 05/05 A3032 RMK AO2 T00500050
KPBX 181035Z AUTO 16003KT 10SM CLR 05/05 A3031 RMK AO2 T00500050
KPBX 181015Z AUTO 14003KT 10SM CLR 05/05 A3031 RMK AO2 T00520052
KPBX 180955Z AUTO 17003KT 10SM CLR 06/06 A3031 RMK AO2 T00550055
KPBX 180935Z AUTO 16004KT 10SM CLR 06/06 A3030 RMK AO2 T00560056
KPBX 180915Z AUTO 17006KT 10SM CLR 06/06 A3030 RMK AO2 T00570057
KPBX 180855Z AUTO 16003KT 10SM CLR 06/06 A3030 RMK AO2 T00560056
KPBX 180835Z AUTO 16003KT 10SM CLR 06/06 A3030 RMK AO2 T00600060
KPBX 180815Z AUTO 17003KT 10SM CLR 07/06 A3029 RMK AO2 T00660063
KPBX 180755Z AUTO 17004KT 10SM CLR 07/07 A3029 RMK AO2 T00650065
KPBX 180735Z AUTO 15003KT 10SM CLR 07/07 A3030 RMK AO2 T00660065
KPBX 180715Z AUTO 13004KT 10SM CLR 07/06 A3030 RMK AO2 T00730058
KPBX 180655Z AUTO 14004KT 10SM CLR 08/06 A3030 RMK AO2 T00750057
KPBX 180635Z AUTO 13004KT 10SM CLR 08/06 A3030 RMK AO2 T00760059
KPBX 180615Z AUTO 14003KT 10SM CLR 08/06 A3030 RMK AO2 T00750060
KPBX 180555Z AUTO 16004KT 10SM CLR 08/06 A3030 RMK AO2 T00800056 10137 20079
KPBX 180535Z AUTO 17004KT 10SM CLR 08/06 A3030 RMK AO2 T00820055
KPBX 180515Z AUTO 17004KT 10SM CLR 09/05 A3030 RMK AO2 T00860053
KPBX 180455Z AUTO 17004KT 10SM CLR 09/05 A3030 RMK AO2 T00930050 401670030
KPBX 180435Z AUTO 18003KT 10SM CLR 09/05 A3030 RMK AO2 T00910050
KPBX 180415Z AUTO 17004KT 10SM CLR 09/05 A3030 RMK AO2 T00920050
KPBX 180355Z AUTO 00000KT 10SM CLR 10/05 A3031 RMK AO2 T00990048
KPBX 180335Z AUTO 17003KT 10SM CLR 10/05 A3031 RMK AO2 T00980050
KPBX 180315Z AUTO 16003KT 10SM CLR 10/05 A3032 RMK AO2 T01020047
KPBX 180255Z AUTO 16003KT 10SM CLR 11/05 A3032 RMK AO2 T01050046
KPBX 180235Z AUTO 00000KT 10SM CLR 11/04 A3032 RMK AO2 T01100037
KPBX 180215Z AUTO 00000KT 10SM CLR 11/04 A3032 RMK AO2 T01120036
KPBX 180155Z AUTO 00000KT 10SM CLR 12/03 A3031 RMK AO2 T01200031
KPBX 180135Z AUTO 00000KT 10SM CLR 13/03 A3031 RMK AO2 T01250032
KPBX 180115Z AUTO 00000KT 10SM CLR 13/03 A3030 RMK AO2 T01290030
KPBX 180055Z AUTO 05004KT 10SM CLR 13/03 A3030 RMK AO2 T01300031
KPBX 180035Z AUTO 00000KT 10SM CLR 13/03 A3031 RMK AO2 T01310030
KPBX 180015Z AUTO 01004KT 10SM CLR 13/03 A3030 RMK AO2 T01300031
KPBX 172355Z AUTO 01004KT 10SM CLR 14/03 A3030 RMK AO2 T01370029 10167 20137
KPBX 172335Z AUTO 01003KT 10SM CLR 14/03 A3030 RMK AO2 T01390030
KPBX 172315Z AUTO 00000KT 10SM CLR 14/03 A3029 RMK AO2 T01420030
KPBX 172255Z AUTO 00000KT 10SM CLR 14/03 A3028 RMK AO2 T01430034
KPBX 172235Z AUTO 00000KT 10SM CLR 15/04 A3028 RMK AO2 T01540040
KPBX 172215Z AUTO 00000KT 10SM CLR 16/04 A3028 RMK AO2 T01560035
KPBX 172155Z AUTO 00000KT 10SM CLR 16/03 A3028 RMK AO2 T01580034
KPBX 172135Z AUTO 00000KT 10SM CLR 16/04 A3028 RMK AO2 T01630043
KPBX 172115Z AUTO 00000KT 10SM CLR 16/03 A3028 RMK AO2 T01640032
KPBX 172055Z AUTO 00000KT 10SM CLR 17/04 A3028 RMK AO2 T01650039
KPBX 172035Z AUTO 00000KT 10SM CLR 17/03 A3029 RMK AO2 T01650034
KPBX 172015Z AUTO 00000KT 10SM CLR 16/03 A3030 RMK AO2 T01600025
KPBX 171955Z AUTO 30005KT 10SM CLR 17/03 A3030 RMK AO2 T01650033
KPBX 171935Z AUTO 25003KT 10SM CLR 16/04 A3030 RMK AO2 T01640038
KPBX 171915Z AUTO 02004KT 10SM CLR 16/03 A3031 RMK AO2 T01590032